X  Close Metar Aviation Weather Data     EHBK Maastricht Aachen Airport
Temperature
16°C Temperature
15°C Dewpoint
94% Humidity



Wind
4 M/S
8 MPH
13 KM/H
7 KTS



260°
W
Current Conditions

Light Rain, Light Drizzle Light Rain, Light Drizzle
Pressure 1005.76 (hPa) - 29.7 (inHg)
Visibility 6 (mile) - 9.7 (km)
Airport
Airport-code EHBK

Location: Maastricht Aachen Airport
Distance: 26 (km)

Metar:
EHBK 211555Z AUTO 26007KT 210V290 9999 -RADZ SCT030 BKN042 16/15 Q1006 TEMPO 4000 SHRA BKN012 SCT030CB

Time: 21-05-2024 17:55 CEST